createdAt,value
2018-02-04T14:21:12.619Z,5.65
2018-02-04T14:23:40.137Z,6.03
2018-02-04T14:43:25.643Z,6.75
2018-02-04T14:45:53.213Z,6.50
2018-02-04T14:48:21.490Z,6.55
2018-02-04T14:50:49.754Z,6.43
2018-02-04T15:13:29.107Z,7.60
2018-02-04T15:15:56.628Z,8.85
2018-02-04T15:18:24.173Z,8.18
2018-02-04T15:20:51.692Z,9.48
2018-02-04T15:43:30.203Z,8.80
2018-02-04T15:45:57.728Z,7.55
2018-02-04T15:48:26.007Z,8.52
2018-02-04T15:50:54.280Z,8.18
2018-02-04T15:53:22.558Z,8.15
2018-02-04T15:55:50.836Z,8.90
2018-02-04T15:58:19.117Z,7.93
2018-02-04T16:00:47.587Z,9.30
2018-02-04T16:03:15.886Z,8.38
2018-02-04T16:05:44.190Z,9.93
2018-02-04T16:08:11.749Z,9.55
2018-02-04T16:10:39.266Z,8.52
2018-02-04T16:13:06.797Z,11.35
2018-02-04T16:15:34.323Z,10.68
2018-02-04T16:18:01.848Z,10.10
2018-02-04T16:20:30.127Z,10.88
2018-02-04T16:43:12.131Z,10.93
2018-02-04T17:05:49.417Z,14.95
2018-02-04T17:08:16.942Z,12.90
2018-02-04T17:10:44.469Z,15.85
2018-02-04T17:13:12.048Z,15.48
2018-02-04T17:15:39.575Z,14.57
2018-02-04T17:18:07.091Z,15.95
2018-02-04T17:20:34.609Z,12.63
2018-02-04T17:23:02.220Z,12.85
2018-02-04T17:25:30.506Z,13.77
2018-02-04T17:27:58.020Z,15.00
2018-02-04T17:30:26.311Z,15.00
2018-02-04T17:32:53.832Z,16.45
2018-02-04T17:53:01.262Z,15.93
2018-02-04T17:55:28.781Z,14.43
2018-02-04T17:57:56.317Z,15.57
2018-02-04T18:00:23.888Z,16.10
2018-02-04T18:02:52.183Z,15.68
2018-02-04T18:25:30.950Z,17.08
2018-02-04T18:27:58.476Z,18.65
2018-02-04T18:47:44.933Z,22.52
2018-02-04T18:50:12.466Z,20.50
2018-02-04T18:52:39.991Z,22.65
2018-02-04T18:55:07.505Z,20.10
2018-02-04T19:14:53.558Z,24.63
2018-02-04T19:17:21.083Z,21.37
2018-02-04T19:37:21.607Z,25.75
2018-02-04T19:57:29.481Z,25.67
2018-02-04T19:59:57.267Z,25.42
2018-02-04T20:02:24.827Z,23.62
2018-02-04T20:04:52.418Z,24.60
2018-02-04T20:07:20.720Z,27.92
2018-02-04T20:27:06.673Z,24.90
2018-02-04T20:46:53.749Z,29.37
2018-02-04T21:09:33.283Z,29.73
2018-02-04T21:12:00.807Z,28.17
2018-02-04T21:34:38.931Z,27.08
2018-02-04T21:37:07.287Z,26.67
2018-02-04T21:39:34.842Z,26.92
2018-02-04T21:42:02.458Z,27.08
2018-02-04T22:01:47.390Z,25.67
2018-02-04T22:04:14.908Z,26.40
2018-02-04T22:06:42.416Z,25.88
2018-02-04T22:26:28.159Z,27.75
2018-02-04T22:28:55.676Z,26.50
2018-02-04T22:48:39.463Z,27.70
2018-02-04T23:11:19.652Z,28.33
2018-02-04T23:13:47.927Z,26.98
2018-02-04T23:33:35.401Z,28.90
2018-02-04T23:36:02.946Z,30.08
2018-02-04T23:38:30.457Z,30.65
2018-02-04T23:40:57.979Z,30.10
2018-02-04T23:43:25.504Z,29.90
2018-02-04T23:45:53.817Z,32.25
2018-02-04T23:48:21.341Z,30.02
2018-02-04T23:50:48.875Z,32.10
